Terminal Aerodrome Forecast
Issued by NWS Cleveland, OH

Home | Current Version | Previous Version | Graphics & Text | Print | Product List | Glossary On
Versions: 1 2 3 4 5 6 7 8 9 10 11 12 13 14 15 16 17 18 19 20
857
FTUS41 KCLE 140539
TAFYNG
TAF
KYNG 140539Z 1406/1506 14006KT P6SM SCT040
     FM140900 15003KT 4SM BR SKC
     FM141300 17006KT P6SM SCT060=

USA.gov is the U.S. government's official web portal to all federal, state and local government web resources and services.